sensor_id;sensor_type;location;lat;lon;timestamp;P1;durP1;ratioP1;P2;durP2;ratioP2
78787;SDS011;68131;52.508;5.502;2024-01-30T00:01:58;6.63;;;4.25;;
78787;SDS011;68131;52.508;5.502;2024-01-30T00:04:30;8.32;;;4.75;;
78787;SDS011;68131;52.508;5.502;2024-01-30T00:06:59;10.52;;;4.93;;
78787;SDS011;68131;52.508;5.502;2024-01-30T00:09:28;6.63;;;4.30;;
78787;SDS011;68131;52.508;5.502;2024-01-30T00:11:57;6.88;;;4.57;;
78787;SDS011;68131;52.508;5.502;2024-01-30T00:14:26;7.55;;;4.63;;
78787;SDS011;68131;52.508;5.502;2024-01-30T00:16:55;9.23;;;4.55;;
78787;SDS011;68131;52.508;5.502;2024-01-30T00:19:24;5.57;;;4.05;;
78787;SDS011;68131;52.508;5.502;2024-01-30T00:21:56;7.15;;;3.60;;
78787;SDS011;68131;52.508;5.502;2024-01-30T00:24:25;6.47;;;4.00;;
78787;SDS011;68131;52.508;5.502;2024-01-30T00:26:54;7.30;;;4.20;;
78787;SDS011;68131;52.508;5.502;2024-01-30T00:29:23;7.30;;;4.53;;
78787;SDS011;68131;52.508;5.502;2024-01-30T00:31:56;8.40;;;4.57;;
78787;SDS011;68131;52.508;5.502;2024-01-30T00:34:25;6.00;;;4.43;;
78787;SDS011;68131;52.508;5.502;2024-01-30T00:36:56;8.40;;;4.00;;
78787;SDS011;68131;52.508;5.502;2024-01-30T00:39:25;5.10;;;4.13;;
78787;SDS011;68131;52.508;5.502;2024-01-30T00:41:55;6.68;;;3.60;;
78787;SDS011;68131;52.508;5.502;2024-01-30T00:44:24;5.53;;;3.95;;
78787;SDS011;68131;52.508;5.502;2024-01-30T00:46:53;10.50;;;3.65;;
78787;SDS011;68131;52.508;5.502;2024-01-30T00:49:24;5.63;;;3.67;;
78787;SDS011;68131;52.508;5.502;2024-01-30T00:51:53;7.72;;;4.22;;
78787;SDS011;68131;52.508;5.502;2024-01-30T00:54:25;6.18;;;3.80;;
78787;SDS011;68131;52.508;5.502;2024-01-30T00:56:54;7.72;;;4.90;;
78787;SDS011;68131;52.508;5.502;2024-01-30T00:59:23;5.90;;;4.15;;
78787;SDS011;68131;52.508;5.502;2024-01-30T01:01:52;9.13;;;4.65;;
78787;SDS011;68131;52.508;5.502;2024-01-30T01:04:22;6.93;;;3.90;;
78787;SDS011;68131;52.508;5.502;2024-01-30T01:06:52;7.25;;;3.72;;
78787;SDS011;68131;52.508;5.502;2024-01-30T01:09:25;8.57;;;4.15;;
78787;SDS011;68131;52.508;5.502;2024-01-30T01:11:54;6.45;;;3.63;;
78787;SDS011;68131;52.508;5.502;2024-01-30T01:14:24;10.38;;;3.88;;
78787;SDS011;68131;52.508;5.502;2024-01-30T01:16:53;5.57;;;3.65;;
78787;SDS011;68131;52.508;5.502;2024-01-30T01:19:22;8.80;;;4.10;;
78787;SDS011;68131;52.508;5.502;2024-01-30T01:21:51;10.88;;;6.55;;
78787;SDS011;68131;52.508;5.502;2024-01-30T01:24:20;7.72;;;4.53;;
78787;SDS011;68131;52.508;5.502;2024-01-30T01:26:52;6.90;;;4.25;;
78787;SDS011;68131;52.508;5.502;2024-01-30T01:29:22;7.10;;;4.32;;
78787;SDS011;68131;52.508;5.502;2024-01-30T01:31:54;7.38;;;4.10;;
78787;SDS011;68131;52.508;5.502;2024-01-30T01:34:23;7.10;;;4.32;;
78787;SDS011;68131;52.508;5.502;2024-01-30T01:36:52;11.02;;;3.67;;
78787;SDS011;68131;52.508;5.502;2024-01-30T01:39:22;10.40;;;4.60;;
78787;SDS011;68131;52.508;5.502;2024-01-30T01:41:54;7.68;;;4.75;;
78787;SDS011;68131;52.508;5.502;2024-01-30T01:44:23;5.80;;;3.55;;
78787;SDS011;68131;52.508;5.502;2024-01-30T01:46:52;6.78;;;5.07;;
78787;SDS011;68131;52.508;5.502;2024-01-30T01:49:26;6.13;;;3.85;;
78787;SDS011;68131;52.508;5.502;2024-01-30T01:51:57;5.90;;;4.10;;
78787;SDS011;68131;52.508;5.502;2024-01-30T01:54:28;7.15;;;4.43;;
78787;SDS011;68131;52.508;5.502;2024-01-30T01:57:00;7.93;;;3.83;;
78787;SDS011;68131;52.508;5.502;2024-01-30T01:59:30;9.57;;;3.63;;
78787;SDS011;68131;52.508;5.502;2024-01-30T02:01:59;5.97;;;3.63;;
78787;SDS011;68131;52.508;5.502;2024-01-30T02:04:30;5.75;;;3.67;;
78787;SDS011;68131;52.508;5.502;2024-01-30T02:06:59;7.82;;;3.95;;
78787;SDS011;68131;52.508;5.502;2024-01-30T02:09:28;6.15;;;4.53;;
78787;SDS011;68131;52.508;5.502;2024-01-30T02:11:58;6.60;;;3.55;;
78787;SDS011;68131;52.508;5.502;2024-01-30T02:14:29;4.63;;;3.75;;
78787;SDS011;68131;52.508;5.502;2024-01-30T02:16:59;7.70;;;4.65;;
78787;SDS011;68131;52.508;5.502;2024-01-30T02:19:28;6.53;;;3.83;;
78787;SDS011;68131;52.508;5.502;2024-01-30T02:21:59;9.60;;;3.90;;
78787;SDS011;68131;52.508;5.502;2024-01-30T02:24:29;5.45;;;3.75;;
78787;SDS011;68131;52.508;5.502;2024-01-30T02:26:58;5.05;;;3.13;;
78787;SDS011;68131;52.508;5.502;2024-01-30T02:29:27;6.03;;;4.00;;
78787;SDS011;68131;52.508;5.502;2024-01-30T02:31:56;6.82;;;3.50;;
78787;SDS011;68131;52.508;5.502;2024-01-30T02:34:25;7.15;;;4.55;;
78787;SDS011;68131;52.508;5.502;2024-01-30T02:36:55;4.95;;;3.33;;
78787;SDS011;68131;52.508;5.502;2024-01-30T02:39:26;5.30;;;3.92;;
78787;SDS011;68131;52.508;5.502;2024-01-30T02:41:55;7.13;;;3.58;;
78787;SDS011;68131;52.508;5.502;2024-01-30T02:44:24;7.10;;;3.80;;
78787;SDS011;68131;52.508;5.502;2024-01-30T02:46:54;9.13;;;4.30;;
78787;SDS011;68131;52.508;5.502;2024-01-30T02:49:23;5.78;;;3.88;;
78787;SDS011;68131;52.508;5.502;2024-01-30T02:51:53;6.63;;;3.83;;
78787;SDS011;68131;52.508;5.502;2024-01-30T02:54:26;7.50;;;3.63;;
78787;SDS011;68131;52.508;5.502;2024-01-30T02:56:56;5.15;;;3.50;;
78787;SDS011;68131;52.508;5.502;2024-01-30T02:59:25;5.90;;;3.03;;
78787;SDS011;68131;52.508;5.502;2024-01-30T03:01:54;9.73;;;4.45;;
78787;SDS011;68131;52.508;5.502;2024-01-30T03:04:26;5.85;;;3.72;;
78787;SDS011;68131;52.508;5.502;2024-01-30T03:06:55;6.22;;;3.60;;
78787;SDS011;68131;52.508;5.502;2024-01-30T03:09:27;4.35;;;3.42;;
78787;SDS011;68131;52.508;5.502;2024-01-30T03:11:56;6.22;;;3.80;;
78787;SDS011;68131;52.508;5.502;2024-01-30T03:14:26;8.02;;;3.75;;
78787;SDS011;68131;52.508;5.502;2024-01-30T03:16:55;5.05;;;3.92;;
78787;SDS011;68131;52.508;5.502;2024-01-30T03:19:24;7.05;;;4.38;;
78787;SDS011;68131;52.508;5.502;2024-01-30T03:21:53;4.20;;;3.03;;
78787;SDS011;68131;52.508;5.502;2024-01-30T03:24:23;7.50;;;4.47;;
78787;SDS011;68131;52.508;5.502;2024-01-30T03:26:54;5.45;;;3.85;;
78787;SDS011;68131;52.508;5.502;2024-01-30T03:29:23;6.90;;;3.65;;
78787;SDS011;68131;52.508;5.502;2024-01-30T03:31:53;8.35;;;4.63;;
78787;SDS011;68131;52.508;5.502;2024-01-30T03:34:22;9.07;;;3.17;;
78787;SDS011;68131;52.508;5.502;2024-01-30T03:36:51;8.38;;;4.00;;
78787;SDS011;68131;52.508;5.502;2024-01-30T03:39:22;3.67;;;2.97;;
78787;SDS011;68131;52.508;5.502;2024-01-30T03:41:51;5.82;;;3.78;;
78787;SDS011;68131;52.508;5.502;2024-01-30T03:44:26;4.97;;;3.58;;
78787;SDS011;68131;52.508;5.502;2024-01-30T03:46:55;6.63;;;3.60;;
78787;SDS011;68131;52.508;5.502;2024-01-30T03:49:27;4.90;;;3.20;;
78787;SDS011;68131;52.508;5.502;2024-01-30T03:51:57;5.55;;;3.15;;
78787;SDS011;68131;52.508;5.502;2024-01-30T03:54:26;3.88;;;3.00;;
78787;SDS011;68131;52.508;5.502;2024-01-30T03:56:59;5.75;;;3.45;;
78787;SDS011;68131;52.508;5.502;2024-01-30T03:59:29;9.75;;;4.60;;
78787;SDS011;68131;52.508;5.502;2024-01-30T04:01:58;6.72;;;3.28;;
78787;SDS011;68131;52.508;5.502;2024-01-30T04:04:27;4.50;;;2.88;;
78787;SDS011;68131;52.508;5.502;2024-01-30T04:06:56;7.70;;;4.10;;
78787;SDS011;68131;52.508;5.502;2024-01-30T04:09:27;4.20;;;2.75;;
78787;SDS011;68131;52.508;5.502;2024-01-30T04:12:00;6.43;;;3.70;;
78787;SDS011;68131;52.508;5.502;2024-01-30T04:14:29;5.88;;;3.22;;
78787;SDS011;68131;52.508;5.502;2024-01-30T04:16:59;8.93;;;3.90;;
78787;SDS011;68131;52.508;5.502;2024-01-30T04:19:28;5.03;;;2.88;;
78787;SDS011;68131;52.508;5.502;2024-01-30T04:21:57;4.93;;;3.60;;
78787;SDS011;68131;52.508;5.502;2024-01-30T04:24:26;4.32;;;3.53;;
78787;SDS011;68131;52.508;5.502;2024-01-30T04:26:55;6.10;;;3.08;;
78787;SDS011;68131;52.508;5.502;2024-01-30T04:29:27;5.78;;;3.55;;
78787;SDS011;68131;52.508;5.502;2024-01-30T04:31:56;7.82;;;3.83;;
78787;SDS011;68131;52.508;5.502;2024-01-30T04:34:25;7.43;;;3.05;;
78787;SDS011;68131;52.508;5.502;2024-01-30T04:36:57;5.95;;;3.58;;
78787;SDS011;68131;52.508;5.502;2024-01-30T04:39:26;7.00;;;3.67;;
78787;SDS011;68131;52.508;5.502;2024-01-30T04:41:55;6.97;;;4.00;;
78787;SDS011;68131;52.508;5.502;2024-01-30T04:44:27;6.85;;;4.40;;
78787;SDS011;68131;52.508;5.502;2024-01-30T04:46:57;6.57;;;4.00;;
78787;SDS011;68131;52.508;5.502;2024-01-30T04:49:27;7.35;;;3.75;;
78787;SDS011;68131;52.508;5.502;2024-01-30T04:51:56;5.75;;;3.33;;
78787;SDS011;68131;52.508;5.502;2024-01-30T04:54:26;6.32;;;3.95;;
78787;SDS011;68131;52.508;5.502;2024-01-30T04:56:55;5.88;;;3.42;;
78787;SDS011;68131;52.508;5.502;2024-01-30T04:59:27;6.50;;;3.80;;
78787;SDS011;68131;52.508;5.502;2024-01-30T05:01:56;5.55;;;3.58;;
78787;SDS011;68131;52.508;5.502;2024-01-30T05:04:25;4.90;;;3.58;;
78787;SDS011;68131;52.508;5.502;2024-01-30T05:06:54;7.03;;;4.47;;
78787;SDS011;68131;52.508;5.502;2024-01-30T05:09:23;5.25;;;3.92;;
78787;SDS011;68131;52.508;5.502;2024-01-30T05:11:55;6.28;;;3.70;;
78787;SDS011;68131;52.508;5.502;2024-01-30T05:14:27;4.80;;;3.72;;
78787;SDS011;68131;52.508;5.502;2024-01-30T05:16:56;6.53;;;3.60;;
78787;SDS011;68131;52.508;5.502;2024-01-30T05:19:25;7.65;;;4.53;;
78787;SDS011;68131;52.508;5.502;2024-01-30T05:21:54;8.43;;;4.18;;
78787;SDS011;68131;52.508;5.502;2024-01-30T05:24:23;5.22;;;3.53;;
78787;SDS011;68131;52.508;5.502;2024-01-30T05:26:52;6.45;;;3.92;;
78787;SDS011;68131;52.508;5.502;2024-01-30T05:29:21;5.07;;;3.05;;
78787;SDS011;68131;52.508;5.502;2024-01-30T05:31:53;5.13;;;2.97;;
78787;SDS011;68131;52.508;5.502;2024-01-30T05:34:22;6.82;;;4.30;;
78787;SDS011;68131;52.508;5.502;2024-01-30T05:36:51;4.78;;;3.17;;
78787;SDS011;68131;52.508;5.502;2024-01-30T05:39:20;8.82;;;4.03;;
78787;SDS011;68131;52.508;5.502;2024-01-30T05:41:50;5.05;;;3.28;;
78787;SDS011;68131;52.508;5.502;2024-01-30T05:44:19;4.20;;;2.38;;
78787;SDS011;68131;52.508;5.502;2024-01-30T05:46:48;4.75;;;3.00;;
78787;SDS011;68131;52.508;5.502;2024-01-30T05:49:19;5.68;;;3.22;;
78787;SDS011;68131;52.508;5.502;2024-01-30T05:51:49;5.57;;;3.85;;
78787;SDS011;68131;52.508;5.502;2024-01-30T05:54:18;9.10;;;3.30;;
78787;SDS011;68131;52.508;5.502;2024-01-30T05:56:47;7.30;;;3.35;;
78787;SDS011;68131;52.508;5.502;2024-01-30T05:59:18;4.78;;;3.22;;
78787;SDS011;68131;52.508;5.502;2024-01-30T06:01:48;4.45;;;3.10;;
78787;SDS011;68131;52.508;5.502;2024-01-30T06:04:20;5.57;;;2.80;;
78787;SDS011;68131;52.508;5.502;2024-01-30T06:06:49;6.55;;;4.15;;
78787;SDS011;68131;52.508;5.502;2024-01-30T06:09:18;3.47;;;2.63;;
78787;SDS011;68131;52.508;5.502;2024-01-30T06:11:47;5.88;;;3.65;;
78787;SDS011;68131;52.508;5.502;2024-01-30T06:14:16;4.97;;;3.20;;
78787;SDS011;68131;52.508;5.502;2024-01-30T06:16:47;5.30;;;3.50;;
78787;SDS011;68131;52.508;5.502;2024-01-30T06:19:16;7.93;;;3.58;;
78787;SDS011;68131;52.508;5.502;2024-01-30T06:21:48;4.32;;;3.20;;
78787;SDS011;68131;52.508;5.502;2024-01-30T06:24:17;4.70;;;2.85;;
78787;SDS011;68131;52.508;5.502;2024-01-30T06:26:46;6.40;;;3.30;;
78787;SDS011;68131;52.508;5.502;2024-01-30T06:29:15;4.05;;;3.00;;
78787;SDS011;68131;52.508;5.502;2024-01-30T06:31:48;6.38;;;3.70;;
78787;SDS011;68131;52.508;5.502;2024-01-30T06:34:21;5.45;;;3.30;;
78787;SDS011;68131;52.508;5.502;2024-01-30T06:36:51;8.07;;;4.13;;
78787;SDS011;68131;52.508;5.502;2024-01-30T06:39:20;5.00;;;3.35;;
78787;SDS011;68131;52.508;5.502;2024-01-30T06:41:50;4.20;;;3.75;;
78787;SDS011;68131;52.508;5.502;2024-01-30T06:44:19;7.47;;;3.72;;
78787;SDS011;68131;52.508;5.502;2024-01-30T06:46:49;4.18;;;2.60;;
78787;SDS011;68131;52.508;5.502;2024-01-30T06:49:20;4.20;;;3.50;;
78787;SDS011;68131;52.508;5.502;2024-01-30T06:51:50;9.30;;;4.60;;
78787;SDS011;68131;52.508;5.502;2024-01-30T06:54:19;6.32;;;3.33;;
78787;SDS011;68131;52.508;5.502;2024-01-30T06:56:48;6.13;;;2.92;;
78787;SDS011;68131;52.508;5.502;2024-01-30T06:59:17;5.03;;;3.38;;
78787;SDS011;68131;52.508;5.502;2024-01-30T07:01:46;6.70;;;3.28;;
78787;SDS011;68131;52.508;5.502;2024-01-30T07:04:15;6.97;;;3.75;;
78787;SDS011;68131;52.508;5.502;2024-01-30T07:06:47;6.75;;;3.38;;
78787;SDS011;68131;52.508;5.502;2024-01-30T07:09:16;8.57;;;3.38;;
78787;SDS011;68131;52.508;5.502;2024-01-30T07:11:48;7.28;;;2.92;;
78787;SDS011;68131;52.508;5.502;2024-01-30T07:14:18;5.35;;;3.17;;
78787;SDS011;68131;52.508;5.502;2024-01-30T07:16:47;6.35;;;4.03;;
78787;SDS011;68131;52.508;5.502;2024-01-30T07:19:19;6.28;;;4.15;;
78787;SDS011;68131;52.508;5.502;2024-01-30T07:21:52;6.32;;;3.30;;
78787;SDS011;68131;52.508;5.502;2024-01-30T07:24:21;4.93;;;3.28;;
78787;SDS011;68131;52.508;5.502;2024-01-30T07:26:51;3.65;;;3.17;;
78787;SDS011;68131;52.508;5.502;2024-01-30T07:29:21;6.43;;;3.72;;
78787;SDS011;68131;52.508;5.502;2024-01-30T07:31:50;4.65;;;2.90;;
78787;SDS011;68131;52.508;5.502;2024-01-30T07:34:19;7.72;;;3.53;;
78787;SDS011;68131;52.508;5.502;2024-01-30T07:36:51;5.57;;;2.95;;
78787;SDS011;68131;52.508;5.502;2024-01-30T07:39:20;3.80;;;2.63;;
78787;SDS011;68131;52.508;5.502;2024-01-30T07:41:49;5.72;;;2.88;;
78787;SDS011;68131;52.508;5.502;2024-01-30T07:44:18;6.95;;;3.28;;
78787;SDS011;68131;52.508;5.502;2024-01-30T07:46:47;4.55;;;3.53;;
78787;SDS011;68131;52.508;5.502;2024-01-30T07:49:17;4.35;;;3.13;;
78787;SDS011;68131;52.508;5.502;2024-01-30T07:51:47;8.00;;;3.80;;
78787;SDS011;68131;52.508;5.502;2024-01-30T07:54:18;8.13;;;3.28;;
78787;SDS011;68131;52.508;5.502;2024-01-30T07:56:49;6.07;;;3.67;;
78787;SDS011;68131;52.508;5.502;2024-01-30T07:59:18;5.38;;;3.45;;
78787;SDS011;68131;52.508;5.502;2024-01-30T08:02:02;4.38;;;3.10;;
78787;SDS011;68131;52.508;5.502;2024-01-30T08:04:32;7.35;;;3.65;;
78787;SDS011;68131;52.508;5.502;2024-01-30T08:07:03;7.30;;;3.13;;
78787;SDS011;68131;52.508;5.502;2024-01-30T08:09:35;5.88;;;3.08;;
78787;SDS011;68131;52.508;5.502;2024-01-30T08:12:04;5.82;;;3.40;;
78787;SDS011;68131;52.508;5.502;2024-01-30T08:14:38;5.90;;;3.28;;
78787;SDS011;68131;52.508;5.502;2024-01-30T08:17:07;5.50;;;3.08;;
78787;SDS011;68131;52.508;5.502;2024-01-30T08:19:36;5.88;;;3.65;;
78787;SDS011;68131;52.508;5.502;2024-01-30T08:22:05;6.03;;;3.58;;
78787;SDS011;68131;52.508;5.502;2024-01-30T08:24:40;5.00;;;3.03;;
78787;SDS011;68131;52.508;5.502;2024-01-30T08:27:09;4.72;;;3.60;;
78787;SDS011;68131;52.508;5.502;2024-01-30T08:29:39;4.57;;;2.95;;
78787;SDS011;68131;52.508;5.502;2024-01-30T08:32:08;5.13;;;3.17;;
78787;SDS011;68131;52.508;5.502;2024-01-30T08:34:39;6.03;;;2.95;;
78787;SDS011;68131;52.508;5.502;2024-01-30T08:37:11;3.15;;;2.85;;
78787;SDS011;68131;52.508;5.502;2024-01-30T08:39:44;6.03;;;2.67;;
78787;SDS011;68131;52.508;5.502;2024-01-30T08:42:13;6.10;;;3.42;;
78787;SDS011;68131;52.508;5.502;2024-01-30T08:44:44;6.43;;;3.10;;
78787;SDS011;68131;52.508;5.502;2024-01-30T08:47:14;5.70;;;2.92;;
78787;SDS011;68131;52.508;5.502;2024-01-30T08:49:44;7.20;;;3.50;;
78787;SDS011;68131;52.508;5.502;2024-01-30T08:52:13;10.48;;;3.58;;
78787;SDS011;68131;52.508;5.502;2024-01-30T08:54:45;6.00;;;2.97;;
78787;SDS011;68131;52.508;5.502;2024-01-30T08:59:50;5.65;;;2.75;;
78787;SDS011;68131;52.508;5.502;2024-01-30T09:02:19;6.38;;;3.55;;
78787;SDS011;68131;52.508;5.502;2024-01-30T09:04:48;6.75;;;2.90;;
78787;SDS011;68131;52.508;5.502;2024-01-30T09:07:22;3.10;;;2.13;;
78787;SDS011;68131;52.508;5.502;2024-01-30T09:09:56;5.53;;;3.13;;
78787;SDS011;68131;52.508;5.502;2024-01-30T09:12:28;4.47;;;2.67;;
78787;SDS011;68131;52.508;5.502;2024-01-30T09:14:57;5.95;;;3.20;;
78787;SDS011;68131;52.508;5.502;2024-01-30T09:17:27;4.85;;;3.40;;
78787;SDS011;68131;52.508;5.502;2024-01-30T09:19:57;6.65;;;3.85;;
78787;SDS011;68131;52.508;5.502;2024-01-30T09:22:26;7.80;;;3.17;;
78787;SDS011;68131;52.508;5.502;2024-01-30T09:24:58;4.97;;;3.63;;
78787;SDS011;68131;52.508;5.502;2024-01-30T09:27:27;5.30;;;3.03;;
78787;SDS011;68131;52.508;5.502;2024-01-30T09:29:56;5.72;;;3.10;;
78787;SDS011;68131;52.508;5.502;2024-01-30T09:32:25;5.13;;;3.30;;
78787;SDS011;68131;52.508;5.502;2024-01-30T09:34:55;6.75;;;2.80;;
78787;SDS011;68131;52.508;5.502;2024-01-30T09:37:24;8.40;;;3.42;;
78787;SDS011;68131;52.508;5.502;2024-01-30T09:39:54;6.35;;;3.40;;
78787;SDS011;68131;52.508;5.502;2024-01-30T09:42:28;6.70;;;3.85;;
78787;SDS011;68131;52.508;5.502;2024-01-30T09:45:03;9.32;;;4.97;;
78787;SDS011;68131;52.508;5.502;2024-01-30T09:47:36;7.88;;;3.85;;
78787;SDS011;68131;52.508;5.502;2024-01-30T09:50:12;5.20;;;3.38;;
78787;SDS011;68131;52.508;5.502;2024-01-30T09:52:42;6.28;;;3.97;;
78787;SDS011;68131;52.508;5.502;2024-01-30T09:55:12;5.97;;;3.30;;
78787;SDS011;68131;52.508;5.502;2024-01-30T09:57:45;10.02;;;3.92;;
78787;SDS011;68131;52.508;5.502;2024-01-30T10:00:14;8.45;;;3.17;;
78787;SDS011;68131;52.508;5.502;2024-01-30T10:02:44;8.50;;;3.92;;
78787;SDS011;68131;52.508;5.502;2024-01-30T10:05:15;8.63;;;4.60;;
78787;SDS011;68131;52.508;5.502;2024-01-30T10:07:52;5.90;;;3.92;;
78787;SDS011;68131;52.508;5.502;2024-01-30T10:10:25;6.53;;;3.65;;
78787;SDS011;68131;52.508;5.502;2024-01-30T10:12:57;7.07;;;3.83;;
78787;SDS011;68131;52.508;5.502;2024-01-30T10:15:26;4.88;;;3.83;;
78787;SDS011;68131;52.508;5.502;2024-01-30T10:17:57;5.40;;;3.13;;
78787;SDS011;68131;52.508;5.502;2024-01-30T10:20:26;6.40;;;3.08;;
78787;SDS011;68131;52.508;5.502;2024-01-30T10:22:55;6.50;;;4.20;;
78787;SDS011;68131;52.508;5.502;2024-01-30T10:25:25;6.10;;;3.83;;
78787;SDS011;68131;52.508;5.502;2024-01-30T10:27:57;6.63;;;3.53;;
78787;SDS011;68131;52.508;5.502;2024-01-30T10:30:27;6.45;;;3.63;;
78787;SDS011;68131;52.508;5.502;2024-01-30T10:32:57;6.85;;;3.33;;
78787;SDS011;68131;52.508;5.502;2024-01-30T10:35:29;7.00;;;4.00;;
78787;SDS011;68131;52.508;5.502;2024-01-30T10:38:01;6.88;;;3.30;;
78787;SDS011;68131;52.508;5.502;2024-01-30T10:40:31;6.10;;;3.72;;
78787;SDS011;68131;52.508;5.502;2024-01-30T10:43:04;4.93;;;2.83;;
78787;SDS011;68131;52.508;5.502;2024-01-30T10:45:37;6.20;;;3.72;;
78787;SDS011;68131;52.508;5.502;2024-01-30T10:48:12;5.55;;;2.75;;
78787;SDS011;68131;52.508;5.502;2024-01-30T10:50:45;5.30;;;2.90;;
78787;SDS011;68131;52.508;5.502;2024-01-30T10:53:14;6.43;;;3.38;;
78787;SDS011;68131;52.508;5.502;2024-01-30T10:55:49;4.38;;;3.17;;
78787;SDS011;68131;52.508;5.502;2024-01-30T10:58:23;6.43;;;3.05;;
78787;SDS011;68131;52.508;5.502;2024-01-30T11:00:52;3.80;;;3.08;;
78787;SDS011;68131;52.508;5.502;2024-01-30T11:03:22;7.75;;;3.00;;
78787;SDS011;68131;52.508;5.502;2024-01-30T11:05:58;5.32;;;2.75;;
78787;SDS011;68131;52.508;5.502;2024-01-30T11:08:32;4.57;;;2.80;;
78787;SDS011;68131;52.508;5.502;2024-01-30T11:11:01;2.20;;;1.42;;
78787;SDS011;68131;52.508;5.502;2024-01-30T11:13:32;2.83;;;1.55;;
78787;SDS011;68131;52.508;5.502;2024-01-30T11:16:03;1.33;;;1.20;;
78787;SDS011;68131;52.508;5.502;2024-01-30T11:18:33;1.88;;;1.10;;
78787;SDS011;68131;52.508;5.502;2024-01-30T11:21:04;2.55;;;1.20;;
78787;SDS011;68131;52.508;5.502;2024-01-30T11:23:34;1.63;;;1.00;;
78787;SDS011;68131;52.508;5.502;2024-01-30T11:26:04;5.10;;;1.38;;
78787;SDS011;68131;52.508;5.502;2024-01-30T11:28:36;0.88;;;0.68;;
78787;SDS011;68131;52.508;5.502;2024-01-30T11:31:07;2.83;;;0.70;;
78787;SDS011;68131;52.508;5.502;2024-01-30T11:33:38;2.45;;;0.73;;
78787;SDS011;68131;52.508;5.502;2024-01-30T11:36:07;2.67;;;0.50;;
78787;SDS011;68131;52.508;5.502;2024-01-30T11:38:37;3.75;;;0.52;;
78787;SDS011;68131;52.508;5.502;2024-01-30T11:41:06;0.50;;;0.50;;
78787;SDS011;68131;52.508;5.502;2024-01-30T11:43:41;0.88;;;0.70;;
78787;SDS011;68131;52.508;5.502;2024-01-30T11:46:10;1.02;;;0.40;;
78787;SDS011;68131;52.508;5.502;2024-01-30T11:48:39;2.03;;;0.40;;
78787;SDS011;68131;52.508;5.502;2024-01-30T11:51:08;0.52;;;0.50;;
78787;SDS011;68131;52.508;5.502;2024-01-30T11:53:37;2.85;;;0.70;;
78787;SDS011;68131;52.508;5.502;2024-01-30T11:56:09;0.30;;;0.30;;
78787;SDS011;68131;52.508;5.502;2024-01-30T11:58:44;0.43;;;0.25;;
78787;SDS011;68131;52.508;5.502;2024-01-30T12:01:14;0.43;;;0.25;;
78787;SDS011;68131;52.508;5.502;2024-01-30T12:03:49;0.22;;;0.22;;
78787;SDS011;68131;52.508;5.502;2024-01-30T12:06:20;4.03;;;0.40;;
78787;SDS011;68131;52.508;5.502;2024-01-30T12:08:58;0.60;;;0.25;;
78787;SDS011;68131;52.508;5.502;2024-01-30T12:11:30;0.20;;;0.20;;
78787;SDS011;68131;52.508;5.502;2024-01-30T12:14:01;0.43;;;0.35;;
78787;SDS011;68131;52.508;5.502;2024-01-30T12:16:30;0.98;;;0.60;;
78787;SDS011;68131;52.508;5.502;2024-01-30T12:19:00;0.20;;;0.20;;
78787;SDS011;68131;52.508;5.502;2024-01-30T12:21:29;0.22;;;0.22;;
78787;SDS011;68131;52.508;5.502;2024-01-30T12:23:59;3.10;;;0.80;;
78787;SDS011;68131;52.508;5.502;2024-01-30T12:26:28;2.05;;;0.30;;
78787;SDS011;68131;52.508;5.502;2024-01-30T12:28:57;1.45;;;0.70;;
78787;SDS011;68131;52.508;5.502;2024-01-30T12:31:31;0.95;;;0.45;;
78787;SDS011;68131;52.508;5.502;2024-01-30T12:34:01;0.95;;;0.30;;
78787;SDS011;68131;52.508;5.502;2024-01-30T12:36:30;1.00;;;0.40;;
78787;SDS011;68131;52.508;5.502;2024-01-30T12:38:59;0.95;;;0.52;;
78787;SDS011;68131;52.508;5.502;2024-01-30T12:41:29;0.45;;;0.38;;
78787;SDS011;68131;52.508;5.502;2024-01-30T12:43:59;1.08;;;0.45;;
78787;SDS011;68131;52.508;5.502;2024-01-30T12:46:30;1.23;;;1.13;;
78787;SDS011;68131;52.508;5.502;2024-01-30T12:49:00;0.50;;;0.40;;
78787;SDS011;68131;52.508;5.502;2024-01-30T12:51:30;0.80;;;0.35;;
78787;SDS011;68131;52.508;5.502;2024-01-30T12:54:05;2.38;;;0.65;;
78787;SDS011;68131;52.508;5.502;2024-01-30T12:56:35;0.43;;;0.40;;
78787;SDS011;68131;52.508;5.502;2024-01-30T12:59:06;1.52;;;0.60;;
78787;SDS011;68131;52.508;5.502;2024-01-30T13:01:38;0.50;;;0.40;;
78787;SDS011;68131;52.508;5.502;2024-01-30T13:04:08;0.93;;;0.65;;
78787;SDS011;68131;52.508;5.502;2024-01-30T13:06:37;3.60;;;0.88;;
78787;SDS011;68131;52.508;5.502;2024-01-30T13:09:06;2.05;;;1.10;;
78787;SDS011;68131;52.508;5.502;2024-01-30T13:11:35;3.33;;;0.75;;
78787;SDS011;68131;52.508;5.502;2024-01-30T13:14:04;1.15;;;0.68;;
78787;SDS011;68131;52.508;5.502;2024-01-30T13:16:33;1.00;;;0.80;;
78787;SDS011;68131;52.508;5.502;2024-01-30T13:19:05;3.97;;;0.77;;
78787;SDS011;68131;52.508;5.502;2024-01-30T13:21:34;1.10;;;0.52;;
78787;SDS011;68131;52.508;5.502;2024-01-30T13:24:04;0.85;;;0.85;;
78787;SDS011;68131;52.508;5.502;2024-01-30T13:26:35;1.45;;;1.27;;
78787;SDS011;68131;52.508;5.502;2024-01-30T13:29:06;1.10;;;0.60;;
78787;SDS011;68131;52.508;5.502;2024-01-30T13:31:35;0.40;;;0.40;;
78787;SDS011;68131;52.508;5.502;2024-01-30T13:34:09;1.23;;;0.60;;
78787;SDS011;68131;52.508;5.502;2024-01-30T13:36:40;0.47;;;0.38;;
78787;SDS011;68131;52.508;5.502;2024-01-30T13:39:10;4.03;;;0.70;;
78787;SDS011;68131;52.508;5.502;2024-01-30T13:41:41;1.83;;;0.73;;
78787;SDS011;68131;52.508;5.502;2024-01-30T13:44:10;1.23;;;0.70;;
78787;SDS011;68131;52.508;5.502;2024-01-30T13:46:45;0.70;;;0.70;;
78787;SDS011;68131;52.508;5.502;2024-01-30T13:49:17;3.58;;;0.90;;
78787;SDS011;68131;52.508;5.502;2024-01-30T13:51:47;3.10;;;1.10;;
78787;SDS011;68131;52.508;5.502;2024-01-30T13:54:16;4.25;;;0.60;;
78787;SDS011;68131;52.508;5.502;2024-01-30T13:56:45;4.22;;;0.98;;
78787;SDS011;68131;52.508;5.502;2024-01-30T13:59:14;0.77;;;0.77;;
78787;SDS011;68131;52.508;5.502;2024-01-30T14:01:49;1.42;;;0.52;;
78787;SDS011;68131;52.508;5.502;2024-01-30T14:04:21;1.42;;;1.08;;
78787;SDS011;68131;52.508;5.502;2024-01-30T14:06:50;0.70;;;0.65;;
78787;SDS011;68131;52.508;5.502;2024-01-30T14:09:19;1.25;;;0.93;;
78787;SDS011;68131;52.508;5.502;2024-01-30T14:11:48;1.02;;;0.95;;
78787;SDS011;68131;52.508;5.502;2024-01-30T14:14:17;0.50;;;0.40;;
78787;SDS011;68131;52.508;5.502;2024-01-30T14:16:46;1.20;;;0.43;;
78787;SDS011;68131;52.508;5.502;2024-01-30T14:19:16;3.45;;;0.90;;
78787;SDS011;68131;52.508;5.502;2024-01-30T14:21:48;0.73;;;0.57;;
78787;SDS011;68131;52.508;5.502;2024-01-30T14:24:17;0.52;;;0.50;;
78787;SDS011;68131;52.508;5.502;2024-01-30T14:26:46;3.45;;;1.10;;
78787;SDS011;68131;52.508;5.502;2024-01-30T14:29:15;4.50;;;0.90;;
78787;SDS011;68131;52.508;5.502;2024-01-30T14:31:45;0.40;;;0.40;;
78787;SDS011;68131;52.508;5.502;2024-01-30T14:34:14;0.60;;;0.43;;
78787;SDS011;68131;52.508;5.502;2024-01-30T14:36:44;1.00;;;0.60;;
78787;SDS011;68131;52.508;5.502;2024-01-30T14:39:18;0.80;;;0.68;;
78787;SDS011;68131;52.508;5.502;2024-01-30T14:41:49;1.02;;;0.50;;
78787;SDS011;68131;52.508;5.502;2024-01-30T14:44:18;1.10;;;0.70;;
78787;SDS011;68131;52.508;5.502;2024-01-30T14:46:47;0.90;;;0.50;;
78787;SDS011;68131;52.508;5.502;2024-01-30T14:49:20;0.90;;;0.63;;
78787;SDS011;68131;52.508;5.502;2024-01-30T14:51:52;1.15;;;0.68;;
78787;SDS011;68131;52.508;5.502;2024-01-30T14:54:21;0.70;;;0.68;;
78787;SDS011;68131;52.508;5.502;2024-01-30T14:56:51;2.50;;;0.40;;
78787;SDS011;68131;52.508;5.502;2024-01-30T14:59:22;0.98;;;0.60;;
78787;SDS011;68131;52.508;5.502;2024-01-30T15:01:54;1.17;;;0.40;;
78787;SDS011;68131;52.508;5.502;2024-01-30T15:04:23;0.82;;;0.47;;
78787;SDS011;68131;52.508;5.502;2024-01-30T15:06:55;0.57;;;0.40;;
78787;SDS011;68131;52.508;5.502;2024-01-30T15:09:24;1.30;;;0.52;;